createdAt,value
2022-08-09T00:00:00.303Z,24.22
2022-08-09T00:02:37.296Z,24.14
2022-08-09T00:06:15.537Z,24.08
2022-08-09T00:08:01.440Z,24.09
2022-08-09T00:10:28.187Z,24.03
2022-08-09T00:12:54.770Z,23.98
2022-08-09T00:15:26.583Z,23.94
2022-08-09T00:18:12.008Z,23.91
2022-08-09T00:20:41.376Z,23.86
2022-08-09T00:23:57.724Z,23.82
2022-08-09T00:25:55.850Z,23.79
2022-08-09T00:28:23.477Z,23.77
2022-08-09T00:30:53.904Z,23.77
2022-08-09T00:33:20.446Z,23.74
2022-08-09T00:36:02.052Z,23.72
2022-08-09T00:38:28.663Z,23.72
2022-08-09T00:40:55.354Z,23.68
2022-08-09T00:44:11.420Z,23.61
2022-08-09T00:46:28.529Z,23.58
2022-08-09T00:48:58.789Z,23.53
2022-08-09T00:51:27.521Z,23.47
2022-08-09T00:54:00.610Z,23.41
2022-08-09T00:56:27.269Z,23.30
2022-08-09T00:58:54.235Z,23.29
2022-08-09T01:01:24.474Z,23.28
2022-08-09T01:04:12.904Z,23.24
2022-08-09T01:07:02.172Z,23.25
2022-08-09T01:09:56.431Z,23.23
2022-08-09T01:12:28.927Z,23.22
2022-08-09T01:15:05.986Z,23.25
2022-08-09T01:17:57.606Z,23.23
2022-08-09T01:20:33.212Z,23.23
2022-08-09T01:24:02.179Z,23.21
2022-08-09T01:26:34.051Z,23.18
2022-08-09T01:29:03.904Z,23.17
2022-08-09T01:32:31.790Z,23.12
2022-08-09T01:34:22.268Z,23.11
2022-08-09T01:36:49.455Z,23.05
2022-08-09T01:39:17.570Z,23.03
2022-08-09T01:41:53.364Z,23.00
2022-08-09T01:44:24.928Z,23.01
2022-08-09T01:46:53.011Z,22.94
2022-08-09T01:49:24.090Z,22.92
2022-08-09T01:51:54.825Z,22.92
2022-08-09T01:54:25.832Z,22.89
2022-08-09T01:56:56.792Z,22.84
2022-08-09T01:59:23.874Z,22.79
2022-08-09T02:01:59.555Z,22.78
2022-08-09T02:04:29.787Z,22.71
2022-08-09T02:07:15.410Z,22.72
2022-08-09T02:10:12.117Z,22.70
2022-08-09T02:12:39.997Z,22.70
2022-08-09T02:15:08.557Z,22.64
2022-08-09T02:17:59.889Z,22.60
2022-08-09T02:20:39.741Z,22.62
2022-08-09T02:23:14.127Z,22.62
2022-08-09T02:25:52.496Z,22.62
2022-08-09T02:28:37.298Z,22.58
2022-08-09T02:31:08.372Z,22.55
2022-08-09T02:34:06.692Z,22.54
2022-08-09T02:36:38.058Z,22.54
2022-08-09T02:39:14.397Z,22.52
2022-08-09T02:42:01.574Z,22.49
2022-08-09T02:44:35.194Z,22.44
2022-08-09T02:47:06.960Z,22.43
2022-08-09T02:49:41.938Z,22.41
2022-08-09T02:52:13.483Z,22.39
2022-08-09T02:54:54.551Z,22.37
2022-08-09T02:57:25.474Z,22.36
2022-08-09T03:00:25.655Z,22.35
2022-08-09T03:02:58.033Z,22.30
2022-08-09T03:05:26.403Z,22.25
2022-08-09T03:07:55.445Z,22.25
2022-08-09T03:10:24.396Z,22.12
2022-08-09T03:12:52.401Z,22.04
2022-08-09T03:15:20.820Z,22.05
2022-08-09T03:17:53.928Z,21.88
2022-08-09T03:20:29.490Z,21.83
2022-08-09T03:22:58.278Z,21.83
2022-08-09T03:25:59.342Z,21.79
2022-08-09T03:28:17.989Z,21.79
2022-08-09T03:30:45.842Z,21.76
2022-08-09T03:33:19.146Z,21.72
2022-08-09T03:36:13.981Z,21.68
2022-08-09T03:38:41.809Z,21.67
2022-08-09T03:41:10.488Z,21.72
2022-08-09T03:44:02.837Z,21.67
2022-08-09T03:46:30.440Z,21.63
2022-08-09T03:49:04.052Z,21.62
2022-08-09T03:51:56.251Z,21.59
2022-08-09T03:54:31.281Z,21.49
2022-08-09T03:57:01.510Z,21.49
2022-08-09T03:59:53.865Z,21.47
2022-08-09T04:02:19.940Z,21.48
2022-08-09T04:04:55.451Z,21.44
2022-08-09T04:07:21.992Z,21.44
2022-08-09T04:10:00.539Z,21.47
2022-08-09T04:12:41.488Z,21.46
2022-08-09T04:15:29.335Z,21.45
2022-08-09T04:17:57.772Z,21.47
2022-08-09T04:20:24.690Z,21.51
2022-08-09T04:22:52.567Z,21.50
2022-08-09T04:25:19.298Z,21.46
2022-08-09T04:27:46.734Z,21.40
2022-08-09T04:30:23.369Z,21.43
2022-08-09T04:32:52.973Z,21.44
2022-08-09T04:35:21.843Z,21.42
2022-08-09T04:37:49.622Z,21.39
2022-08-09T04:40:29.055Z,21.40
2022-08-09T04:43:03.674Z,21.40
2022-08-09T04:45:31.079Z,21.36
2022-08-09T04:48:06.669Z,21.39
2022-08-09T04:50:37.719Z,21.38
2022-08-09T04:53:12.982Z,21.40
2022-08-09T04:55:58.117Z,21.46
2022-08-09T04:58:31.895Z,21.47
2022-08-09T05:01:01.343Z,21.51
2022-08-09T05:03:41.286Z,21.57
2022-08-09T05:06:11.836Z,21.62
2022-08-09T05:08:48.744Z,21.68
2022-08-09T05:11:15.611Z,21.75
2022-08-09T05:13:42.884Z,21.84
2022-08-09T05:16:10.497Z,21.88
2022-08-09T05:18:57.623Z,22.00
2022-08-09T05:21:24.530Z,22.24
2022-08-09T05:24:00.104Z,22.49
2022-08-09T05:26:45.624Z,22.82
2022-08-09T05:29:21.648Z,23.19
2022-08-09T05:31:56.651Z,23.55
2022-08-09T05:34:30.830Z,23.84
2022-08-09T05:37:01.717Z,24.23
2022-08-09T05:39:36.208Z,24.63
2022-08-09T05:42:10.235Z,24.95
2022-08-09T05:44:44.681Z,25.17
2022-08-09T05:47:14.321Z,25.57
2022-08-09T05:50:25.888Z,25.71
2022-08-09T05:52:27.727Z,26.00
2022-08-09T05:55:07.002Z,26.52
2022-08-09T05:57:51.240Z,26.73
2022-08-09T06:00:23.537Z,26.86
2022-08-09T06:02:54.720Z,27.03
2022-08-09T06:05:50.145Z,27.29
2022-08-09T06:08:19.525Z,27.35
2022-08-09T06:10:56.090Z,27.17
2022-08-09T06:13:23.865Z,27.13
2022-08-09T06:15:52.354Z,27.06
2022-08-09T06:18:23.802Z,27.20
2022-08-09T06:20:54.767Z,27.37
2022-08-09T06:23:54.933Z,27.43
2022-08-09T06:26:21.217Z,27.69
2022-08-09T06:29:01.168Z,28.01
2022-08-09T06:31:40.618Z,28.27
2022-08-09T06:34:20.079Z,28.35
2022-08-09T06:36:50.934Z,28.68
2022-08-09T06:39:48.374Z,28.85
2022-08-09T06:42:13.179Z,28.90
2022-08-09T06:44:40.134Z,29.13
2022-08-09T06:47:06.746Z,29.39
2022-08-09T06:50:11.454Z,29.55
2022-08-09T06:52:29.084Z,29.77
2022-08-09T06:54:55.645Z,30.09
2022-08-09T06:57:25.840Z,30.43
2022-08-09T07:00:57.273Z,31.00
2022-08-09T07:02:57.198Z,31.33
2022-08-09T07:05:24.492Z,31.54
2022-08-09T07:08:11.032Z,32.04
2022-08-09T07:10:38.408Z,32.65
2022-08-09T07:13:27.498Z,33.15
2022-08-09T07:16:36.055Z,33.16
2022-08-09T07:18:39.283Z,33.64
2022-08-09T07:21:07.727Z,33.85
2022-08-09T07:23:36.208Z,33.34
2022-08-09T07:26:04.064Z,33.23
2022-08-09T07:28:34.865Z,33.23
2022-08-09T07:31:06.901Z,33.04
2022-08-09T07:33:52.697Z,32.94
2022-08-09T07:36:20.281Z,32.82
2022-08-09T07:38:58.255Z,33.22
2022-08-09T07:41:27.232Z,33.06
2022-08-09T07:43:59.976Z,32.85
2022-08-09T07:46:27.977Z,33.22
2022-08-09T07:48:59.465Z,33.49
2022-08-09T07:52:05.843Z,33.77
2022-08-09T07:54:15.278Z,33.93
2022-08-09T07:56:49.518Z,34.15
2022-08-09T07:59:34.734Z,33.98
2022-08-09T08:02:05.372Z,34.13
2022-08-09T08:04:33.215Z,34.49
2022-08-09T08:07:27.013Z,34.88
2022-08-09T08:09:54.842Z,35.09
2022-08-09T08:12:32.250Z,35.45
2022-08-09T08:14:59.474Z,35.63
2022-08-09T08:17:52.260Z,35.76
2022-08-09T08:20:13.729Z,36.30
2022-08-09T08:22:41.029Z,36.82
2022-08-09T08:25:13.253Z,36.69
2022-08-09T08:27:41.164Z,36.61
2022-08-09T08:30:12.001Z,36.60
2022-08-09T08:32:41.487Z,37.05
2022-08-09T08:35:19.788Z,37.06
2022-08-09T08:37:59.884Z,38.32
2022-08-09T08:40:33.277Z,39.15
2022-08-09T08:43:03.061Z,39.23
2022-08-09T08:45:51.445Z,39.03
2022-08-09T08:48:22.269Z,38.45
2022-08-09T08:50:51.854Z,38.04
2022-08-09T08:53:21.900Z,38.71
2022-08-09T08:55:48.820Z,38.28
2022-08-09T08:58:20.467Z,39.12
2022-08-09T09:00:56.932Z,39.65
2022-08-09T09:03:37.098Z,40.28
2022-08-09T09:06:05.757Z,40.79
2022-08-09T09:08:37.806Z,41.05
2022-08-09T09:11:08.393Z,41.40
2022-08-09T09:13:47.252Z,41.68
2022-08-09T09:16:30.708Z,41.84
2022-08-09T09:21:59.310Z,43.11
2022-08-09T09:24:33.507Z,43.47
2022-08-09T09:27:03.203Z,43.32
2022-08-09T09:30:08.621Z,44.02
2022-08-09T09:32:34.716Z,42.84
2022-08-09T09:35:03.627Z,43.36
2022-08-09T09:37:36.241Z,43.77
2022-08-09T09:40:04.155Z,43.87
2022-08-09T09:42:31.300Z,45.07
2022-08-09T09:45:03.118Z,44.83
2022-08-09T09:47:30.337Z,45.47
2022-08-09T09:50:14.855Z,46.52
2022-08-09T09:52:53.834Z,46.67
2022-08-09T09:55:28.779Z,45.27
2022-08-09T09:58:16.529Z,45.27
2022-08-09T10:00:52.551Z,46.99
2022-08-09T10:03:44.766Z,46.46
2022-08-09T10:06:24.957Z,46.52
2022-08-09T10:09:00.390Z,46.16
2022-08-09T10:11:57.011Z,46.39
2022-08-09T10:14:30.362Z,47.48
2022-08-09T10:17:11.537Z,47.87
2022-08-09T10:19:46.848Z,47.44
2022-08-09T10:22:31.119Z,47.48
2022-08-09T10:25:03.446Z,47.03
2022-08-09T10:27:38.901Z,47.75
2022-08-09T10:33:29.794Z,47.90
2022-08-09T10:36:00.870Z,46.92
2022-08-09T10:38:54.771Z,46.76
2022-08-09T10:41:17.848Z,46.34
2022-08-09T10:43:50.563Z,46.39
2022-08-09T10:47:00.961Z,47.06
2022-08-09T10:49:56.098Z,47.97
2022-08-09T10:52:38.072Z,46.96
2022-08-09T10:55:26.839Z,47.91
2022-08-09T10:58:00.165Z,47.05
2022-08-09T11:00:51.068Z,46.56
2022-08-09T11:03:49.513Z,46.83
2022-08-09T11:06:18.853Z,47.23
2022-08-09T11:08:51.275Z,47.53
2022-08-09T11:11:21.145Z,47.63
2022-08-09T11:14:38.057Z,48.14
2022-08-09T11:17:24.533Z,49.00
2022-08-09T11:20:11.532Z,49.24
2022-08-09T11:22:55.607Z,48.70
2022-08-09T11:25:45.225Z,48.64
2022-08-09T11:28:35.068Z,49.56
2022-08-09T11:31:50.453Z,49.75
2022-08-09T11:34:36.033Z,49.03
2022-08-09T11:37:07.362Z,47.50
2022-08-09T11:40:02.898Z,47.65
2022-08-09T11:42:49.309Z,48.83
2022-08-09T11:45:42.785Z,49.11
2022-08-09T11:48:19.510Z,49.07
2022-08-09T11:52:49.109Z,48.38
2022-08-09T11:54:01.324Z,47.25
2022-08-09T11:56:42.695Z,46.75
2022-08-09T11:59:30.553Z,46.43
2022-08-09T12:02:34.817Z,45.57
2022-08-09T12:04:51.161Z,44.57
2022-08-09T12:07:28.867Z,45.27
2022-08-09T12:10:31.977Z,45.80
2022-08-09T12:12:55.879Z,45.90
2022-08-09T12:15:49.695Z,46.12
2022-08-09T12:18:18.095Z,45.88
2022-08-09T12:20:59.154Z,44.72
2022-08-09T12:23:56.635Z,43.82
2022-08-09T12:26:19.508Z,41.97
2022-08-09T12:29:14.711Z,41.04
2022-08-09T12:32:02.259Z,40.69
2022-08-09T12:34:37.642Z,39.83
2022-08-09T12:37:22.313Z,39.65
2022-08-09T12:40:07.774Z,38.82
2022-08-09T12:42:36.303Z,38.19
2022-08-09T12:45:32.624Z,38.01
2022-08-09T12:47:52.579Z,38.15
2022-08-09T12:50:24.897Z,38.32
2022-08-09T12:53:09.161Z,37.82
2022-08-09T12:56:16.080Z,37.55
2022-08-09T12:58:27.882Z,37.17
2022-08-09T13:00:56.064Z,37.31
2022-08-09T13:03:58.534Z,36.74
2022-08-09T13:06:34.772Z,36.67
2022-08-09T13:09:08.542Z,36.68
2022-08-09T13:11:42.478Z,36.88
2022-08-09T13:14:41.988Z,36.83
2022-08-09T13:17:13.410Z,36.83
2022-08-09T13:20:07.631Z,36.30
2022-08-09T13:22:37.896Z,36.46
2022-08-09T13:25:19.469Z,36.42
2022-08-09T13:27:54.498Z,36.74
2022-08-09T13:30:49.149Z,36.74
2022-08-09T13:33:11.621Z,36.58
2022-08-09T13:36:24.421Z,36.53
2022-08-09T13:38:55.625Z,36.00
2022-08-09T13:41:58.442Z,36.20
2022-08-09T13:44:13.770Z,36.60
2022-08-09T13:47:27.451Z,36.51
2022-08-09T13:49:39.739Z,36.70
2022-08-09T13:52:18.775Z,36.77
2022-08-09T13:54:59.208Z,36.52
2022-08-09T13:57:55.933Z,36.62
2022-08-09T14:00:27.360Z,36.37
2022-08-09T14:03:04.534Z,36.01
2022-08-09T14:06:00.088Z,35.46
2022-08-09T14:08:30.393Z,35.27
2022-08-09T14:10:57.951Z,35.44
2022-08-09T14:14:15.896Z,35.55
2022-08-09T14:16:17.188Z,35.61
2022-08-09T14:18:49.371Z,35.68
2022-08-09T14:21:20.716Z,35.68
2022-08-09T14:23:54.672Z,35.56
2022-08-09T14:26:31.527Z,35.64
2022-08-09T14:29:08.328Z,35.77
2022-08-09T14:31:53.885Z,35.84
2022-08-09T14:34:27.308Z,35.70
2022-08-09T14:37:09.222Z,35.57
2022-08-09T14:39:39.928Z,35.78
2022-08-09T14:42:32.158Z,35.76
2022-08-09T14:46:40.122Z,35.95
2022-08-09T14:47:57.979Z,35.93
2022-08-09T14:50:28.450Z,35.22
2022-08-09T14:52:55.264Z,35.15
2022-08-09T14:55:21.958Z,34.83
2022-08-09T14:57:49.346Z,34.99
2022-08-09T15:00:17.334Z,34.96
2022-08-09T15:02:47.272Z,35.03
2022-08-09T15:05:16.007Z,34.99
2022-08-09T15:07:45.649Z,35.05
2022-08-09T15:10:21.742Z,34.92
2022-08-09T15:12:52.537Z,34.93
2022-08-09T15:15:20.243Z,34.84
2022-08-09T15:17:52.491Z,34.47
2022-08-09T15:21:55.665Z,34.64
2022-08-09T15:24:00.708Z,34.55
2022-08-09T15:25:57.360Z,34.78
2022-08-09T15:28:27.830Z,34.68
2022-08-09T15:31:08.713Z,34.90
2022-08-09T15:34:18.133Z,34.69
2022-08-09T15:36:29.193Z,34.64
2022-08-09T15:39:00.482Z,34.52
2022-08-09T15:41:31.469Z,34.48
2022-08-09T15:44:00.481Z,34.60
2022-08-09T15:46:34.533Z,34.56
2022-08-09T15:49:22.159Z,34.62
2022-08-09T15:52:03.459Z,34.55
2022-08-09T15:54:48.885Z,34.70
2022-08-09T15:57:18.740Z,34.69
2022-08-09T15:59:51.686Z,34.70
2022-08-09T16:02:19.426Z,34.45
2022-08-09T16:04:53.848Z,34.43
2022-08-09T16:07:20.454Z,34.41
2022-08-09T16:09:57.929Z,34.14
2022-08-09T16:12:32.914Z,34.08
2022-08-09T16:15:00.972Z,34.02
2022-08-09T16:17:28.577Z,33.92
2022-08-09T16:20:04.659Z,34.05
2022-08-09T16:22:42.441Z,33.88
2022-08-09T16:25:15.828Z,33.90
2022-08-09T16:27:42.532Z,33.86
2022-08-09T16:30:15.281Z,33.63
2022-08-09T16:33:09.928Z,33.68
2022-08-09T16:35:57.269Z,33.49
2022-08-09T16:38:26.912Z,33.37
2022-08-09T16:40:53.844Z,33.17
2022-08-09T16:43:22.080Z,33.30
2022-08-09T16:45:53.666Z,33.19
2022-08-09T16:48:38.780Z,33.19
2022-08-09T16:51:14.241Z,33.31
2022-08-09T16:54:02.539Z,33.07
2022-08-09T16:56:30.471Z,33.03
2022-08-09T16:58:58.055Z,33.03
2022-08-09T17:01:25.718Z,32.96
2022-08-09T17:03:53.468Z,32.68
2022-08-09T17:06:31.875Z,32.72
2022-08-09T17:09:17.766Z,32.44
2022-08-09T17:11:48.023Z,32.38
2022-08-09T17:14:27.660Z,32.35
2022-08-09T17:17:02.922Z,32.35
2022-08-09T17:19:47.384Z,32.47
2022-08-09T17:22:24.229Z,32.43
2022-08-09T17:24:56.024Z,32.35
2022-08-09T17:27:31.323Z,32.14
2022-08-09T17:29:57.923Z,32.15
2022-08-09T17:32:34.914Z,32.18
2022-08-09T17:35:11.413Z,32.18
2022-08-09T17:38:02.609Z,32.17
2022-08-09T17:40:32.695Z,32.12
2022-08-09T17:43:10.761Z,31.84
2022-08-09T17:46:03.766Z,31.90
2022-08-09T17:48:40.037Z,31.96
2022-08-09T17:51:19.507Z,31.96
2022-08-09T17:53:52.245Z,31.86
2022-08-09T17:56:28.978Z,31.78
2022-08-09T17:59:03.057Z,31.87
2022-08-09T18:01:57.667Z,31.83
2022-08-09T18:04:18.829Z,31.67
2022-08-09T18:06:54.617Z,31.53
2022-08-09T18:09:23.457Z,31.45
2022-08-09T18:12:15.303Z,31.40
2022-08-09T18:14:49.473Z,31.32
2022-08-09T18:17:18.840Z,31.34
2022-08-09T18:20:55.624Z,31.17
2022-08-09T18:22:50.970Z,31.20
2022-08-09T18:25:18.270Z,31.12
2022-08-09T18:28:03.796Z,31.10
2022-08-09T18:30:40.712Z,31.00
2022-08-09T18:33:15.874Z,30.97
2022-08-09T18:36:00.015Z,30.98
2022-08-09T18:38:27.420Z,30.74
2022-08-09T18:40:55.262Z,30.68
2022-08-09T18:43:22.643Z,30.66
2022-08-09T18:46:50.533Z,30.63
2022-08-09T18:48:37.240Z,30.54
2022-08-09T18:51:04.577Z,30.52
2022-08-09T18:53:56.433Z,30.47
2022-08-09T18:56:27.003Z,30.32
2022-08-09T18:58:55.965Z,30.28
2022-08-09T19:01:23.237Z,30.18
2022-08-09T19:04:00.939Z,30.21
2022-08-09T19:06:33.038Z,30.15
2022-08-09T19:09:02.884Z,30.08
2022-08-09T19:11:37.640Z,30.01
2022-08-09T19:14:08.483Z,30.00
2022-08-09T19:16:36.352Z,29.92
2022-08-09T19:19:21.551Z,29.87
2022-08-09T19:22:05.052Z,29.78
2022-08-09T19:24:49.501Z,29.68
2022-08-09T19:27:21.849Z,29.60
2022-08-09T19:30:23.219Z,29.51
2022-08-09T19:32:36.096Z,29.39
2022-08-09T19:35:04.265Z,29.26
2022-08-09T19:37:40.923Z,29.17
2022-08-09T19:40:19.267Z,29.05
2022-08-09T19:42:47.343Z,28.96
2022-08-09T19:45:14.268Z,28.93
2022-08-09T19:47:42.911Z,28.89
2022-08-09T19:50:49.534Z,28.91
2022-08-09T19:52:56.864Z,28.88
2022-08-09T19:55:30.419Z,28.86
2022-08-09T19:57:57.595Z,28.81
2022-08-09T20:00:24.181Z,28.78
2022-08-09T20:04:17.373Z,28.75
2022-08-09T20:05:46.391Z,28.67
2022-08-09T20:08:16.194Z,28.60
2022-08-09T20:10:52.258Z,28.52
2022-08-09T20:13:20.722Z,28.44
2022-08-09T20:16:33.030Z,28.33
2022-08-09T20:18:35.443Z,28.22
2022-08-09T20:21:03.098Z,28.15
2022-08-09T20:23:39.004Z,28.16
2022-08-09T20:26:09.682Z,28.01
2022-08-09T20:28:48.231Z,27.99
2022-08-09T20:31:16.443Z,27.96
2022-08-09T20:33:44.748Z,27.96
2022-08-09T20:36:12.289Z,27.90
2022-08-09T20:39:28.486Z,27.91
2022-08-09T20:41:32.041Z,27.89
2022-08-09T20:44:01.378Z,27.83
2022-08-09T20:46:42.144Z,27.80
2022-08-09T20:49:11.347Z,27.78
2022-08-09T20:51:41.540Z,27.75
2022-08-09T20:54:16.594Z,27.65
2022-08-09T20:56:49.695Z,27.63
2022-08-09T20:59:50.240Z,27.58
2022-08-09T21:02:08.590Z,27.57
2022-08-09T21:05:52.521Z,27.53
2022-08-09T21:07:24.897Z,27.53
2022-08-09T21:10:06.056Z,27.53
2022-08-09T21:12:37.625Z,27.49
2022-08-09T21:15:05.047Z,27.44
2022-08-09T21:18:23.239Z,27.35
2022-08-09T21:20:25.938Z,27.33
2022-08-09T21:22:54.483Z,27.29
2022-08-09T21:25:44.347Z,27.19
2022-08-09T21:28:34.787Z,27.13
2022-08-09T21:31:16.296Z,27.12
2022-08-09T21:33:52.371Z,27.11
2022-08-09T21:36:28.113Z,27.05
2022-08-09T21:38:57.850Z,26.96
2022-08-09T21:42:03.631Z,26.91
2022-08-09T21:44:34.254Z,26.79
2022-08-09T21:47:07.596Z,26.71
2022-08-09T21:49:40.560Z,26.70
2022-08-09T21:52:16.437Z,26.61
2022-08-09T21:55:03.085Z,26.56
2022-08-09T21:57:39.218Z,26.53
2022-08-09T22:00:32.461Z,26.53
2022-08-09T22:03:01.962Z,26.40
2022-08-09T22:05:36.791Z,26.45
2022-08-09T22:08:07.024Z,26.35
2022-08-09T22:11:00.350Z,26.31
2022-08-09T22:13:34.645Z,26.39
2022-08-09T22:16:03.940Z,26.35
2022-08-09T22:18:32.983Z,26.25
2022-08-09T22:21:00.680Z,26.32
2022-08-09T22:23:35.407Z,26.29
2022-08-09T22:26:05.802Z,26.29
2022-08-09T22:28:36.243Z,26.25
2022-08-09T22:31:13.872Z,26.25
2022-08-09T22:33:48.646Z,26.20
2022-08-09T22:36:19.272Z,26.18
2022-08-09T22:38:46.600Z,26.16
2022-08-09T22:41:13.197Z,26.10
2022-08-09T22:44:01.989Z,26.07
2022-08-09T22:48:12.247Z,25.98
2022-08-09T22:49:13.255Z,26.05
2022-08-09T22:51:49.284Z,25.99
2022-08-09T22:54:21.296Z,26.04
2022-08-09T22:56:50.774Z,26.00
2022-08-09T22:59:58.161Z,26.01
2022-08-09T23:02:08.172Z,26.06
2022-08-09T23:04:34.799Z,26.06
2022-08-09T23:08:09.417Z,26.06
2022-08-09T23:10:11.174Z,26.07
2022-08-09T23:12:37.845Z,26.01
2022-08-09T23:15:05.207Z,25.98
2022-08-09T23:17:31.958Z,25.92
2022-08-09T23:20:00.857Z,25.93
2022-08-09T23:22:34.577Z,25.97
2022-08-09T23:25:04.817Z,25.93
2022-08-09T23:27:32.265Z,26.05
2022-08-09T23:29:59.132Z,25.90
2022-08-09T23:32:25.781Z,25.83
2022-08-09T23:34:52.320Z,25.73
2022-08-09T23:37:21.559Z,25.75
2022-08-09T23:39:52.296Z,25.75
2022-08-09T23:42:18.980Z,25.63
2022-08-09T23:44:45.626Z,25.50
2022-08-09T23:47:12.485Z,25.47
2022-08-09T23:49:39.112Z,25.50
2022-08-09T23:52:05.776Z,25.52
2022-08-09T23:54:32.490Z,25.50
2022-08-09T23:56:59.201Z,25.40
2022-08-09T23:59:46.044Z,25.45
